sensor_id;sensor_type;location;lat;lon;timestamp;temperature;humidity
22996;DHT22;11664;49.774;8.650;2024-01-25T00:02:20;9.00;99.90
22996;DHT22;11664;49.774;8.650;2024-01-25T00:04:52;9.10;99.90
22996;DHT22;11664;49.774;8.650;2024-01-25T00:07:27;9.10;99.90
22996;DHT22;11664;49.774;8.650;2024-01-25T00:09:55;9.00;99.90
22996;DHT22;11664;49.774;8.650;2024-01-25T00:12:21;9.00;99.90
22996;DHT22;11664;49.774;8.650;2024-01-25T00:14:46;9.00;99.90
22996;DHT22;11664;49.774;8.650;2024-01-25T00:17:15;8.90;99.90
22996;DHT22;11664;49.774;8.650;2024-01-25T00:19:46;9.00;99.90
22996;DHT22;11664;49.774;8.650;2024-01-25T00:22:18;9.00;99.90
22996;DHT22;11664;49.774;8.650;2024-01-25T00:24:43;8.90;99.90
22996;DHT22;11664;49.774;8.650;2024-01-25T00:27:15;8.90;99.90
22996;DHT22;11664;49.774;8.650;2024-01-25T00:29:41;8.80;99.90
22996;DHT22;11664;49.774;8.650;2024-01-25T00:32:16;8.70;99.90
22996;DHT22;11664;49.774;8.650;2024-01-25T00:34:47;8.60;99.90
22996;DHT22;11664;49.774;8.650;2024-01-25T00:37:41;8.70;99.90
22996;DHT22;11664;49.774;8.650;2024-01-25T00:40:13;8.70;99.90
22996;DHT22;11664;49.774;8.650;2024-01-25T00:42:57;8.70;99.90
22996;DHT22;11664;49.774;8.650;2024-01-25T00:45:25;8.60;99.90
22996;DHT22;11664;49.774;8.650;2024-01-25T00:47:51;8.60;99.90
22996;DHT22;11664;49.774;8.650;2024-01-25T00:50:18;8.60;99.90
22996;DHT22;11664;49.774;8.650;2024-01-25T00:52:47;8.70;99.90
22996;DHT22;11664;49.774;8.650;2024-01-25T00:55:13;8.70;99.90
22996;DHT22;11664;49.774;8.650;2024-01-25T00:57:40;8.80;99.90
22996;DHT22;11664;49.774;8.650;2024-01-25T01:00:30;8.70;99.90
22996;DHT22;11664;49.774;8.650;2024-01-25T01:03:03;8.60;99.90
22996;DHT22;11664;49.774;8.650;2024-01-25T01:05:30;8.60;99.90
22996;DHT22;11664;49.774;8.650;2024-01-25T01:07:59;8.50;99.90
22996;DHT22;11664;49.774;8.650;2024-01-25T01:10:40;8.60;99.90
22996;DHT22;11664;49.774;8.650;2024-01-25T01:13:05;8.60;99.90
22996;DHT22;11664;49.774;8.650;2024-01-25T01:15:40;8.70;99.90
22996;DHT22;11664;49.774;8.650;2024-01-25T01:18:08;8.70;99.90
22996;DHT22;11664;49.774;8.650;2024-01-25T01:24:02;8.80;99.90
22996;DHT22;11664;49.774;8.650;2024-01-25T01:26:28;8.70;99.90
22996;DHT22;11664;49.774;8.650;2024-01-25T01:29:06;8.70;99.90
22996;DHT22;11664;49.774;8.650;2024-01-25T01:31:34;8.80;99.90
22996;DHT22;11664;49.774;8.650;2024-01-25T01:34:00;8.80;99.90
22996;DHT22;11664;49.774;8.650;2024-01-25T01:36:26;8.90;99.90
22996;DHT22;11664;49.774;8.650;2024-01-25T01:38:58;8.80;99.90
22996;DHT22;11664;49.774;8.650;2024-01-25T01:41:23;8.70;99.90
22996;DHT22;11664;49.774;8.650;2024-01-25T01:43:52;8.70;99.90
22996;DHT22;11664;49.774;8.650;2024-01-25T01:49:34;8.90;99.90
22996;DHT22;11664;49.774;8.650;2024-01-25T01:51:59;8.80;99.90
22996;DHT22;11664;49.774;8.650;2024-01-25T01:54:31;8.80;99.90
22996;DHT22;11664;49.774;8.650;2024-01-25T01:56:57;8.80;99.90
22996;DHT22;11664;49.774;8.650;2024-01-25T01:59:26;8.70;99.90
22996;DHT22;11664;49.774;8.650;2024-01-25T02:01:53;8.70;99.90
22996;DHT22;11664;49.774;8.650;2024-01-25T02:04:25;8.70;99.90
22996;DHT22;11664;49.774;8.650;2024-01-25T02:06:56;8.60;99.90
22996;DHT22;11664;49.774;8.650;2024-01-25T02:09:22;8.60;99.90
22996;DHT22;11664;49.774;8.650;2024-01-25T02:11:48;8.60;99.90
22996;DHT22;11664;49.774;8.650;2024-01-25T02:14:26;8.70;99.90
22996;DHT22;11664;49.774;8.650;2024-01-25T02:16:54;8.60;99.90
22996;DHT22;11664;49.774;8.650;2024-01-25T02:19:29;8.60;99.90
22996;DHT22;11664;49.774;8.650;2024-01-25T02:22:07;8.70;99.90
22996;DHT22;11664;49.774;8.650;2024-01-25T02:24:35;8.60;99.90
22996;DHT22;11664;49.774;8.650;2024-01-25T02:27:04;8.50;99.90
22996;DHT22;11664;49.774;8.650;2024-01-25T02:29:30;8.50;99.90
22996;DHT22;11664;49.774;8.650;2024-01-25T02:31:59;8.30;99.90
22996;DHT22;11664;49.774;8.650;2024-01-25T02:34:27;8.30;99.90
22996;DHT22;11664;49.774;8.650;2024-01-25T02:37:02;8.20;99.90
22996;DHT22;11664;49.774;8.650;2024-01-25T02:39:28;8.20;99.90
22996;DHT22;11664;49.774;8.650;2024-01-25T02:41:56;8.20;99.90
22996;DHT22;11664;49.774;8.650;2024-01-25T02:44:22;8.10;99.90
22996;DHT22;11664;49.774;8.650;2024-01-25T02:46:50;8.10;99.90
22996;DHT22;11664;49.774;8.650;2024-01-25T02:49:16;8.10;99.90
22996;DHT22;11664;49.774;8.650;2024-01-25T02:51:41;8.10;99.90
22996;DHT22;11664;49.774;8.650;2024-01-25T02:54:07;8.10;99.90
22996;DHT22;11664;49.774;8.650;2024-01-25T02:56:35;8.10;99.90
22996;DHT22;11664;49.774;8.650;2024-01-25T02:59:01;8.10;99.90
22996;DHT22;11664;49.774;8.650;2024-01-25T03:01:45;8.20;99.90
22996;DHT22;11664;49.774;8.650;2024-01-25T03:04:12;8.10;99.90
22996;DHT22;11664;49.774;8.650;2024-01-25T03:06:38;7.90;99.90
22996;DHT22;11664;49.774;8.650;2024-01-25T03:09:03;7.70;99.90
22996;DHT22;11664;49.774;8.650;2024-01-25T03:11:35;7.80;99.90
22996;DHT22;11664;49.774;8.650;2024-01-25T03:14:03;7.60;99.90
22996;DHT22;11664;49.774;8.650;2024-01-25T03:16:29;7.60;99.90
22996;DHT22;11664;49.774;8.650;2024-01-25T03:18:54;7.50;99.90
22996;DHT22;11664;49.774;8.650;2024-01-25T03:21:20;7.60;99.90
22996;DHT22;11664;49.774;8.650;2024-01-25T03:23:52;7.60;99.90
22996;DHT22;11664;49.774;8.650;2024-01-25T03:26:20;7.60;99.90
22996;DHT22;11664;49.774;8.650;2024-01-25T03:28:52;7.70;99.90
22996;DHT22;11664;49.774;8.650;2024-01-25T03:31:17;7.60;99.90
22996;DHT22;11664;49.774;8.650;2024-01-25T03:33:55;7.60;99.90
22996;DHT22;11664;49.774;8.650;2024-01-25T03:36:24;7.60;99.90
22996;DHT22;11664;49.774;8.650;2024-01-25T03:39:01;7.60;99.90
22996;DHT22;11664;49.774;8.650;2024-01-25T03:41:34;7.60;99.90
22996;DHT22;11664;49.774;8.650;2024-01-25T03:44:18;7.60;99.90
22996;DHT22;11664;49.774;8.650;2024-01-25T03:46:49;7.60;99.90
22996;DHT22;11664;49.774;8.650;2024-01-25T03:49:27;7.70;99.90
22996;DHT22;11664;49.774;8.650;2024-01-25T03:51:59;7.60;99.90
22996;DHT22;11664;49.774;8.650;2024-01-25T03:54:27;7.60;99.90
22996;DHT22;11664;49.774;8.650;2024-01-25T03:57:03;7.40;99.90
22996;DHT22;11664;49.774;8.650;2024-01-25T03:59:28;7.40;99.90
22996;DHT22;11664;49.774;8.650;2024-01-25T04:01:54;7.30;99.90
22996;DHT22;11664;49.774;8.650;2024-01-25T04:04:22;7.20;99.90
22996;DHT22;11664;49.774;8.650;2024-01-25T04:06:50;7.20;99.90
22996;DHT22;11664;49.774;8.650;2024-01-25T04:09:28;7.20;99.90
22996;DHT22;11664;49.774;8.650;2024-01-25T04:11:57;7.20;99.90
22996;DHT22;11664;49.774;8.650;2024-01-25T04:14:22;7.30;99.90
22996;DHT22;11664;49.774;8.650;2024-01-25T04:16:54;7.30;99.90
22996;DHT22;11664;49.774;8.650;2024-01-25T04:19:22;7.40;99.90
22996;DHT22;11664;49.774;8.650;2024-01-25T04:21:51;7.40;99.90
22996;DHT22;11664;49.774;8.650;2024-01-25T04:24:17;7.50;99.90
22996;DHT22;11664;49.774;8.650;2024-01-25T04:26:45;7.50;99.90
22996;DHT22;11664;49.774;8.650;2024-01-25T04:29:23;7.60;99.90
22996;DHT22;11664;49.774;8.650;2024-01-25T04:31:48;7.60;99.90
22996;DHT22;11664;49.774;8.650;2024-01-25T04:34:23;7.60;99.90
22996;DHT22;11664;49.774;8.650;2024-01-25T04:37:01;7.60;99.90
22996;DHT22;11664;49.774;8.650;2024-01-25T04:39:29;7.60;99.90
22996;DHT22;11664;49.774;8.650;2024-01-25T04:42:01;7.60;99.90
22996;DHT22;11664;49.774;8.650;2024-01-25T04:44:30;7.60;99.90
22996;DHT22;11664;49.774;8.650;2024-01-25T04:47:01;7.60;99.90
22996;DHT22;11664;49.774;8.650;2024-01-25T04:49:30;7.60;99.90
22996;DHT22;11664;49.774;8.650;2024-01-25T04:52:10;7.50;99.90
22996;DHT22;11664;49.774;8.650;2024-01-25T04:54:36;7.30;99.90
22996;DHT22;11664;49.774;8.650;2024-01-25T04:57:01;7.30;99.90
22996;DHT22;11664;49.774;8.650;2024-01-25T04:59:34;7.10;99.90
22996;DHT22;11664;49.774;8.650;2024-01-25T05:02:03;7.00;99.90
22996;DHT22;11664;49.774;8.650;2024-01-25T05:04:29;7.00;99.90
22996;DHT22;11664;49.774;8.650;2024-01-25T05:06:58;7.00;99.90
22996;DHT22;11664;49.774;8.650;2024-01-25T05:09:32;6.90;99.90
22996;DHT22;11664;49.774;8.650;2024-01-25T05:12:01;6.80;99.90
22996;DHT22;11664;49.774;8.650;2024-01-25T05:14:30;6.80;99.90
22996;DHT22;11664;49.774;8.650;2024-01-25T05:16:55;6.80;99.90
22996;DHT22;11664;49.774;8.650;2024-01-25T05:19:23;6.70;99.90
22996;DHT22;11664;49.774;8.650;2024-01-25T05:21:54;6.50;99.90
22996;DHT22;11664;49.774;8.650;2024-01-25T05:24:22;6.40;99.90
22996;DHT22;11664;49.774;8.650;2024-01-25T05:26:53;6.40;99.90
22996;DHT22;11664;49.774;8.650;2024-01-25T05:29:19;6.30;99.90
22996;DHT22;11664;49.774;8.650;2024-01-25T05:31:44;6.20;99.90
22996;DHT22;11664;49.774;8.650;2024-01-25T05:34:17;6.30;99.90
22996;DHT22;11664;49.774;8.650;2024-01-25T05:37:06;6.30;99.90
22996;DHT22;11664;49.774;8.650;2024-01-25T05:39:32;6.20;99.90
22996;DHT22;11664;49.774;8.650;2024-01-25T05:42:01;6.30;99.90
22996;DHT22;11664;49.774;8.650;2024-01-25T05:44:30;6.40;99.90
22996;DHT22;11664;49.774;8.650;2024-01-25T05:47:02;6.70;99.90
22996;DHT22;11664;49.774;8.650;2024-01-25T05:49:27;6.80;99.90
22996;DHT22;11664;49.774;8.650;2024-01-25T05:51:59;6.90;99.90
22996;DHT22;11664;49.774;8.650;2024-01-25T05:54:30;7.00;99.90
22996;DHT22;11664;49.774;8.650;2024-01-25T05:56:59;7.00;99.90
22996;DHT22;11664;49.774;8.650;2024-01-25T05:59:27;7.00;99.90
22996;DHT22;11664;49.774;8.650;2024-01-25T06:02:02;6.90;99.90
22996;DHT22;11664;49.774;8.650;2024-01-25T06:04:34;6.90;99.90
22996;DHT22;11664;49.774;8.650;2024-01-25T06:07:03;6.90;99.90
22996;DHT22;11664;49.774;8.650;2024-01-25T06:09:29;6.90;99.90
22996;DHT22;11664;49.774;8.650;2024-01-25T06:12:00;6.90;99.90
22996;DHT22;11664;49.774;8.650;2024-01-25T06:14:26;6.90;99.90
22996;DHT22;11664;49.774;8.650;2024-01-25T06:16:52;6.90;99.90
22996;DHT22;11664;49.774;8.650;2024-01-25T06:19:20;6.90;99.90
22996;DHT22;11664;49.774;8.650;2024-01-25T06:21:49;6.90;99.90
22996;DHT22;11664;49.774;8.650;2024-01-25T06:24:21;7.00;99.90
22996;DHT22;11664;49.774;8.650;2024-01-25T06:26:59;7.00;99.90
22996;DHT22;11664;49.774;8.650;2024-01-25T06:29:31;6.90;99.90
22996;DHT22;11664;49.774;8.650;2024-01-25T06:31:59;7.00;99.90
22996;DHT22;11664;49.774;8.650;2024-01-25T06:34:25;7.00;99.90
22996;DHT22;11664;49.774;8.650;2024-01-25T06:36:56;6.90;99.90
22996;DHT22;11664;49.774;8.650;2024-01-25T06:39:28;6.90;99.90
22996;DHT22;11664;49.774;8.650;2024-01-25T06:41:59;6.90;99.90
22996;DHT22;11664;49.774;8.650;2024-01-25T06:44:28;6.70;99.90
22996;DHT22;11664;49.774;8.650;2024-01-25T06:47:00;6.70;99.90
22996;DHT22;11664;49.774;8.650;2024-01-25T06:49:25;6.60;99.90
22996;DHT22;11664;49.774;8.650;2024-01-25T06:51:57;6.40;99.90
22996;DHT22;11664;49.774;8.650;2024-01-25T06:54:28;6.30;99.90
22996;DHT22;11664;49.774;8.650;2024-01-25T06:57:00;6.20;99.90
22996;DHT22;11664;49.774;8.650;2024-01-25T06:59:31;6.20;99.90
22996;DHT22;11664;49.774;8.650;2024-01-25T07:02:00;6.00;99.90
22996;DHT22;11664;49.774;8.650;2024-01-25T07:04:28;6.00;99.90
22996;DHT22;11664;49.774;8.650;2024-01-25T07:07:00;5.90;99.90
22996;DHT22;11664;49.774;8.650;2024-01-25T07:09:31;5.90;99.90
22996;DHT22;11664;49.774;8.650;2024-01-25T07:12:00;5.90;99.90
22996;DHT22;11664;49.774;8.650;2024-01-25T07:14:32;5.80;99.90
22996;DHT22;11664;49.774;8.650;2024-01-25T07:17:13;5.80;99.90
22996;DHT22;11664;49.774;8.650;2024-01-25T07:19:38;5.80;99.90
22996;DHT22;11664;49.774;8.650;2024-01-25T07:22:10;5.70;99.90
22996;DHT22;11664;49.774;8.650;2024-01-25T07:24:41;5.70;99.90
22996;DHT22;11664;49.774;8.650;2024-01-25T07:27:18;5.60;99.90
22996;DHT22;11664;49.774;8.650;2024-01-25T07:29:44;5.60;99.90
22996;DHT22;11664;49.774;8.650;2024-01-25T07:32:23;5.50;99.90
22996;DHT22;11664;49.774;8.650;2024-01-25T07:35:13;5.50;99.90
22996;DHT22;11664;49.774;8.650;2024-01-25T07:37:42;5.50;99.90
22996;DHT22;11664;49.774;8.650;2024-01-25T07:40:11;5.60;99.90
22996;DHT22;11664;49.774;8.650;2024-01-25T07:42:40;5.70;99.90
22996;DHT22;11664;49.774;8.650;2024-01-25T07:45:06;5.60;99.90
22996;DHT22;11664;49.774;8.650;2024-01-25T07:47:37;5.70;99.90
22996;DHT22;11664;49.774;8.650;2024-01-25T07:50:03;5.80;99.90
22996;DHT22;11664;49.774;8.650;2024-01-25T07:52:32;5.80;99.90
22996;DHT22;11664;49.774;8.650;2024-01-25T07:55:03;5.80;99.90
22996;DHT22;11664;49.774;8.650;2024-01-25T07:57:29;5.90;99.90
22996;DHT22;11664;49.774;8.650;2024-01-25T07:59:58;5.80;99.90
22996;DHT22;11664;49.774;8.650;2024-01-25T08:02:32;5.80;99.90
22996;DHT22;11664;49.774;8.650;2024-01-25T08:05:01;5.70;99.90
22996;DHT22;11664;49.774;8.650;2024-01-25T08:07:30;5.80;99.90
22996;DHT22;11664;49.774;8.650;2024-01-25T08:09:55;5.90;99.90
22996;DHT22;11664;49.774;8.650;2024-01-25T08:12:24;5.80;99.90
22996;DHT22;11664;49.774;8.650;2024-01-25T08:14:50;5.90;99.90
22996;DHT22;11664;49.774;8.650;2024-01-25T08:17:18;5.90;99.90
22996;DHT22;11664;49.774;8.650;2024-01-25T08:19:50;6.00;99.90
22996;DHT22;11664;49.774;8.650;2024-01-25T08:22:16;5.90;99.90
22996;DHT22;11664;49.774;8.650;2024-01-25T08:24:47;6.00;99.90
22996;DHT22;11664;49.774;8.650;2024-01-25T08:27:19;6.10;99.90
22996;DHT22;11664;49.774;8.650;2024-01-25T08:29:50;6.10;99.90
22996;DHT22;11664;49.774;8.650;2024-01-25T08:32:19;6.10;99.90
22996;DHT22;11664;49.774;8.650;2024-01-25T08:34:48;6.20;99.90
22996;DHT22;11664;49.774;8.650;2024-01-25T08:37:13;6.10;99.90
22996;DHT22;11664;49.774;8.650;2024-01-25T08:39:41;6.10;99.90
22996;DHT22;11664;49.774;8.650;2024-01-25T08:42:08;6.10;99.90
22996;DHT22;11664;49.774;8.650;2024-01-25T08:44:34;6.20;99.90
22996;DHT22;11664;49.774;8.650;2024-01-25T08:46:59;6.20;99.90
22996;DHT22;11664;49.774;8.650;2024-01-25T08:49:28;6.30;99.90
22996;DHT22;11664;49.774;8.650;2024-01-25T08:52:03;6.30;99.90
22996;DHT22;11664;49.774;8.650;2024-01-25T08:54:28;6.40;99.90
22996;DHT22;11664;49.774;8.650;2024-01-25T08:56:59;6.50;99.90
22996;DHT22;11664;49.774;8.650;2024-01-25T08:59:35;6.50;99.90
22996;DHT22;11664;49.774;8.650;2024-01-25T09:02:12;6.60;99.90
22996;DHT22;11664;49.774;8.650;2024-01-25T09:04:43;6.70;99.90
22996;DHT22;11664;49.774;8.650;2024-01-25T09:07:27;6.70;99.90
22996;DHT22;11664;49.774;8.650;2024-01-25T09:10:01;6.80;99.90
22996;DHT22;11664;49.774;8.650;2024-01-25T09:12:27;6.80;99.90
22996;DHT22;11664;49.774;8.650;2024-01-25T09:14:53;6.90;99.90
22996;DHT22;11664;49.774;8.650;2024-01-25T09:17:23;7.00;99.90
22996;DHT22;11664;49.774;8.650;2024-01-25T09:20:06;7.10;99.90
22996;DHT22;11664;49.774;8.650;2024-01-25T09:22:38;7.10;99.90
22996;DHT22;11664;49.774;8.650;2024-01-25T09:25:06;7.20;99.90
22996;DHT22;11664;49.774;8.650;2024-01-25T09:27:32;7.30;99.90
22996;DHT22;11664;49.774;8.650;2024-01-25T09:33:20;7.50;99.90
22996;DHT22;11664;49.774;8.650;2024-01-25T09:35:46;7.70;99.90
22996;DHT22;11664;49.774;8.650;2024-01-25T09:38:19;7.80;99.90
22996;DHT22;11664;49.774;8.650;2024-01-25T09:40:44;7.90;99.90
22996;DHT22;11664;49.774;8.650;2024-01-25T09:43:22;8.10;99.90
22996;DHT22;11664;49.774;8.650;2024-01-25T09:45:50;8.20;99.90
22996;DHT22;11664;49.774;8.650;2024-01-25T09:48:24;8.20;99.90
22996;DHT22;11664;49.774;8.650;2024-01-25T09:50:55;8.20;99.90
22996;DHT22;11664;49.774;8.650;2024-01-25T09:53:24;8.20;99.90
22996;DHT22;11664;49.774;8.650;2024-01-25T09:56:09;8.30;99.90
22996;DHT22;11664;49.774;8.650;2024-01-25T09:58:53;8.40;99.90
22996;DHT22;11664;49.774;8.650;2024-01-25T10:01:31;8.50;99.90
22996;DHT22;11664;49.774;8.650;2024-01-25T10:03:57;8.50;99.90
22996;DHT22;11664;49.774;8.650;2024-01-25T10:06:26;8.60;99.90
22996;DHT22;11664;49.774;8.650;2024-01-25T10:08:52;8.70;99.90
22996;DHT22;11664;49.774;8.650;2024-01-25T10:11:36;9.00;99.90
22996;DHT22;11664;49.774;8.650;2024-01-25T10:14:05;9.00;99.90
22996;DHT22;11664;49.774;8.650;2024-01-25T10:16:35;9.10;99.90
22996;DHT22;11664;49.774;8.650;2024-01-25T10:19:06;9.10;99.90
22996;DHT22;11664;49.774;8.650;2024-01-25T10:21:35;9.10;99.90
22996;DHT22;11664;49.774;8.650;2024-01-25T10:27:33;9.30;99.90
22996;DHT22;11664;49.774;8.650;2024-01-25T10:30:02;9.20;99.90
22996;DHT22;11664;49.774;8.650;2024-01-25T10:32:37;9.30;99.90
22996;DHT22;11664;49.774;8.650;2024-01-25T10:35:02;9.40;99.90
22996;DHT22;11664;49.774;8.650;2024-01-25T10:37:28;9.30;99.90
22996;DHT22;11664;49.774;8.650;2024-01-25T10:39:57;9.50;99.90
22996;DHT22;11664;49.774;8.650;2024-01-25T10:42:23;9.60;99.90
22996;DHT22;11664;49.774;8.650;2024-01-25T10:45:01;9.80;99.90
22996;DHT22;11664;49.774;8.650;2024-01-25T10:47:30;9.70;99.90
22996;DHT22;11664;49.774;8.650;2024-01-25T10:50:01;9.90;99.90
22996;DHT22;11664;49.774;8.650;2024-01-25T10:52:29;9.80;99.90
22996;DHT22;11664;49.774;8.650;2024-01-25T10:55:01;9.90;99.90
22996;DHT22;11664;49.774;8.650;2024-01-25T10:57:42;10.00;99.90
22996;DHT22;11664;49.774;8.650;2024-01-25T11:00:13;10.10;99.90
22996;DHT22;11664;49.774;8.650;2024-01-25T11:02:40;10.20;99.90
22996;DHT22;11664;49.774;8.650;2024-01-25T11:05:13;10.40;99.90
22996;DHT22;11664;49.774;8.650;2024-01-25T11:07:49;10.20;99.90
22996;DHT22;11664;49.774;8.650;2024-01-25T11:10:17;10.10;99.90
22996;DHT22;11664;49.774;8.650;2024-01-25T11:12:57;10.20;99.90
22996;DHT22;11664;49.774;8.650;2024-01-25T11:15:35;10.30;99.90
22996;DHT22;11664;49.774;8.650;2024-01-25T11:18:04;10.30;99.90
22996;DHT22;11664;49.774;8.650;2024-01-25T11:20:35;10.40;99.90
22996;DHT22;11664;49.774;8.650;2024-01-25T11:23:02;10.40;99.90
22996;DHT22;11664;49.774;8.650;2024-01-25T11:25:38;10.30;99.90
22996;DHT22;11664;49.774;8.650;2024-01-25T11:28:04;10.30;99.90
22996;DHT22;11664;49.774;8.650;2024-01-25T11:30:39;10.40;99.90
22996;DHT22;11664;49.774;8.650;2024-01-25T11:33:07;10.30;99.90
22996;DHT22;11664;49.774;8.650;2024-01-25T11:35:33;10.40;99.90
22996;DHT22;11664;49.774;8.650;2024-01-25T11:38:04;10.50;99.90
22996;DHT22;11664;49.774;8.650;2024-01-25T11:40:36;10.50;99.90
22996;DHT22;11664;49.774;8.650;2024-01-25T11:43:17;10.30;99.90
22996;DHT22;11664;49.774;8.650;2024-01-25T11:45:45;10.30;99.90
22996;DHT22;11664;49.774;8.650;2024-01-25T11:48:11;10.50;99.90
22996;DHT22;11664;49.774;8.650;2024-01-25T11:50:37;10.30;99.90
22996;DHT22;11664;49.774;8.650;2024-01-25T11:53:14;10.40;99.90
22996;DHT22;11664;49.774;8.650;2024-01-25T11:55:40;10.40;99.90
22996;DHT22;11664;49.774;8.650;2024-01-25T11:58:06;10.70;99.90
22996;DHT22;11664;49.774;8.650;2024-01-25T12:00:32;11.00;99.90
22996;DHT22;11664;49.774;8.650;2024-01-25T12:03:03;10.90;99.90
22996;DHT22;11664;49.774;8.650;2024-01-25T12:05:32;11.00;99.90
22996;DHT22;11664;49.774;8.650;2024-01-25T12:08:01;10.70;99.90
22996;DHT22;11664;49.774;8.650;2024-01-25T12:10:39;10.90;99.90
22996;DHT22;11664;49.774;8.650;2024-01-25T12:13:13;11.00;99.90
22996;DHT22;11664;49.774;8.650;2024-01-25T12:15:46;11.10;99.90
22996;DHT22;11664;49.774;8.650;2024-01-25T12:21:34;11.10;99.90
22996;DHT22;11664;49.774;8.650;2024-01-25T12:24:00;11.30;99.90
22996;DHT22;11664;49.774;8.650;2024-01-25T12:26:28;11.10;99.90
22996;DHT22;11664;49.774;8.650;2024-01-25T12:28:59;11.20;99.90
22996;DHT22;11664;49.774;8.650;2024-01-25T12:31:31;11.10;99.90
22996;DHT22;11664;49.774;8.650;2024-01-25T12:34:00;10.80;99.90
22996;DHT22;11664;49.774;8.650;2024-01-25T12:36:26;10.70;99.90
22996;DHT22;11664;49.774;8.650;2024-01-25T12:38:54;10.70;99.90
22996;DHT22;11664;49.774;8.650;2024-01-25T12:41:20;10.90;99.90
22996;DHT22;11664;49.774;8.650;2024-01-25T12:43:45;11.50;99.90
22996;DHT22;11664;49.774;8.650;2024-01-25T12:46:11;11.90;99.90
22996;DHT22;11664;49.774;8.650;2024-01-25T12:48:40;11.80;99.90
22996;DHT22;11664;49.774;8.650;2024-01-25T12:51:08;11.50;99.90
22996;DHT22;11664;49.774;8.650;2024-01-25T12:53:37;11.40;99.90
22996;DHT22;11664;49.774;8.650;2024-01-25T12:56:03;11.20;99.90
22996;DHT22;11664;49.774;8.650;2024-01-25T12:58:30;11.40;99.90
22996;DHT22;11664;49.774;8.650;2024-01-25T13:01:02;11.20;99.90
22996;DHT22;11664;49.774;8.650;2024-01-25T13:03:33;11.10;99.90
22996;DHT22;11664;49.774;8.650;2024-01-25T13:06:00;11.00;99.90
22996;DHT22;11664;49.774;8.650;2024-01-25T13:08:40;10.90;99.90
22996;DHT22;11664;49.774;8.650;2024-01-25T13:11:09;11.20;99.90
22996;DHT22;11664;49.774;8.650;2024-01-25T13:13:40;11.50;99.90
22996;DHT22;11664;49.774;8.650;2024-01-25T13:16:06;12.00;99.90
22996;DHT22;11664;49.774;8.650;2024-01-25T13:18:38;11.80;99.90
22996;DHT22;11664;49.774;8.650;2024-01-25T13:21:03;12.20;99.90
22996;DHT22;11664;49.774;8.650;2024-01-25T13:23:38;12.10;99.90
22996;DHT22;11664;49.774;8.650;2024-01-25T13:26:04;11.80;99.90
22996;DHT22;11664;49.774;8.650;2024-01-25T13:28:30;12.20;99.90
22996;DHT22;11664;49.774;8.650;2024-01-25T13:30:58;13.00;99.90
22996;DHT22;11664;49.774;8.650;2024-01-25T13:33:31;13.30;99.90
22996;DHT22;11664;49.774;8.650;2024-01-25T13:36:06;13.10;99.90
22996;DHT22;11664;49.774;8.650;2024-01-25T13:38:40;12.90;99.90
22996;DHT22;11664;49.774;8.650;2024-01-25T13:41:09;12.70;99.90
22996;DHT22;11664;49.774;8.650;2024-01-25T13:43:50;11.90;99.90
22996;DHT22;11664;49.774;8.650;2024-01-25T13:46:21;12.00;99.90
22996;DHT22;11664;49.774;8.650;2024-01-25T13:48:47;12.30;99.90
22996;DHT22;11664;49.774;8.650;2024-01-25T13:51:22;12.20;99.90
22996;DHT22;11664;49.774;8.650;2024-01-25T13:53:56;12.20;99.90
22996;DHT22;11664;49.774;8.650;2024-01-25T13:56:28;12.30;99.90
22996;DHT22;11664;49.774;8.650;2024-01-25T13:58:53;12.30;99.90
22996;DHT22;11664;49.774;8.650;2024-01-25T14:01:22;12.40;99.90
22996;DHT22;11664;49.774;8.650;2024-01-25T14:03:50;12.30;99.90
22996;DHT22;11664;49.774;8.650;2024-01-25T14:06:16;12.30;99.90
22996;DHT22;11664;49.774;8.650;2024-01-25T14:08:45;11.80;99.90
22996;DHT22;11664;49.774;8.650;2024-01-25T14:11:15;11.40;99.90
22996;DHT22;11664;49.774;8.650;2024-01-25T14:13:40;11.30;99.90
22996;DHT22;11664;49.774;8.650;2024-01-25T14:16:06;11.60;99.90
22996;DHT22;11664;49.774;8.650;2024-01-25T14:18:37;11.60;99.90
22996;DHT22;11664;49.774;8.650;2024-01-25T14:21:09;11.60;99.90
22996;DHT22;11664;49.774;8.650;2024-01-25T14:23:34;11.70;99.90
22996;DHT22;11664;49.774;8.650;2024-01-25T14:26:00;11.60;99.90
22996;DHT22;11664;49.774;8.650;2024-01-25T14:28:25;11.70;99.90
22996;DHT22;11664;49.774;8.650;2024-01-25T14:31:00;11.60;99.90
22996;DHT22;11664;49.774;8.650;2024-01-25T14:33:25;11.50;99.90
22996;DHT22;11664;49.774;8.650;2024-01-25T14:35:51;11.60;99.90
22996;DHT22;11664;49.774;8.650;2024-01-25T14:38:16;11.60;99.90
22996;DHT22;11664;49.774;8.650;2024-01-25T14:40:42;11.60;99.90
22996;DHT22;11664;49.774;8.650;2024-01-25T14:43:08;11.30;99.90
22996;DHT22;11664;49.774;8.650;2024-01-25T14:45:33;11.40;99.90
22996;DHT22;11664;49.774;8.650;2024-01-25T14:48:13;11.40;99.90
22996;DHT22;11664;49.774;8.650;2024-01-25T14:50:41;11.30;99.90
22996;DHT22;11664;49.774;8.650;2024-01-25T14:53:07;11.20;99.90
22996;DHT22;11664;49.774;8.650;2024-01-25T14:55:38;11.10;99.90
22996;DHT22;11664;49.774;8.650;2024-01-25T14:58:04;11.00;99.90
22996;DHT22;11664;49.774;8.650;2024-01-25T15:00:29;11.00;99.90
22996;DHT22;11664;49.774;8.650;2024-01-25T15:03:01;10.90;99.90
22996;DHT22;11664;49.774;8.650;2024-01-25T15:05:42;10.90;99.90
22996;DHT22;11664;49.774;8.650;2024-01-25T15:08:11;10.90;99.90
22996;DHT22;11664;49.774;8.650;2024-01-25T15:10:36;10.90;99.90
22996;DHT22;11664;49.774;8.650;2024-01-25T15:13:02;10.70;99.90
22996;DHT22;11664;49.774;8.650;2024-01-25T15:15:34;10.70;99.90
22996;DHT22;11664;49.774;8.650;2024-01-25T15:18:03;10.60;99.90
22996;DHT22;11664;49.774;8.650;2024-01-25T15:20:29;10.50;99.90
22996;DHT22;11664;49.774;8.650;2024-01-25T15:22:55;10.50;99.90
22996;DHT22;11664;49.774;8.650;2024-01-25T15:25:25;10.40;99.90
22996;DHT22;11664;49.774;8.650;2024-01-25T15:27:57;10.30;99.90
22996;DHT22;11664;49.774;8.650;2024-01-25T15:30:26;10.30;99.90
22996;DHT22;11664;49.774;8.650;2024-01-25T15:32:51;10.30;99.90
22996;DHT22;11664;49.774;8.650;2024-01-25T15:35:17;10.20;99.90
22996;DHT22;11664;49.774;8.650;2024-01-25T15:37:55;10.10;99.90
22996;DHT22;11664;49.774;8.650;2024-01-25T15:40:23;10.00;99.90
22996;DHT22;11664;49.774;8.650;2024-01-25T15:42:49;9.90;99.90
22996;DHT22;11664;49.774;8.650;2024-01-25T15:45:29;9.90;99.90
22996;DHT22;11664;49.774;8.650;2024-01-25T15:47:58;9.80;99.90
22996;DHT22;11664;49.774;8.650;2024-01-25T15:50:30;9.70;99.90
22996;DHT22;11664;49.774;8.650;2024-01-25T15:52:55;9.60;99.90
22996;DHT22;11664;49.774;8.650;2024-01-25T15:55:30;9.50;99.90
22996;DHT22;11664;49.774;8.650;2024-01-25T15:57:55;9.50;99.90
22996;DHT22;11664;49.774;8.650;2024-01-25T16:00:21;9.50;99.90
22996;DHT22;11664;49.774;8.650;2024-01-25T16:02:50;9.40;99.90
22996;DHT22;11664;49.774;8.650;2024-01-25T16:05:17;9.40;99.90
22996;DHT22;11664;49.774;8.650;2024-01-25T16:07:42;9.30;99.90
22996;DHT22;11664;49.774;8.650;2024-01-25T16:10:16;9.40;99.90
22996;DHT22;11664;49.774;8.650;2024-01-25T16:12:41;9.30;99.90
22996;DHT22;11664;49.774;8.650;2024-01-25T16:15:07;9.30;99.90
22996;DHT22;11664;49.774;8.650;2024-01-25T16:17:39;9.30;99.90